Chicago O'Hare International Airport
KORD : rendu visible

Aérodrome :











RETROUVEZ-NOUS SUR...

 
LOGIN :

S'inscrire | Disclaimer

   EN    FR    IT 

 









Légende :    VFR   VFR Marginal   IFR   IFR Intensif   IFR Très Intensif
Visi : 
Plafond : 
>= 8 km
>= 3000ft
5 à 8 km
1000 à 3000 ft
1500m à 5 km
500 à 1000 ft
800 à 1500m
200 à 500 ft
< 800m
< 200 ft
Symboles :   Orages  Brouillard  Fortes neiges  Fortes précipitations  Vent > 20 kt






- Altitude de l'aérodrome : 672 ft
- Code IATA : ORD


KORD - Chicago O'Hare International

DERNIER METAR :
  • 130751Z 00000KT 10SM CLR 19/16 A2994 RMK AO2 SLP135 T01940156

METARs EXPIRÉS :
  • 130651Z 33004KT 10SM CLR 19/16 A2995 RMK AO2 SLP137 T01940156
  • 130551Z 00000KT 10SM CLR 20/16 A2995 RMK AO2 SLP137 T02000161 10233 20200 402610200 50004

TAF KORD
Valide du 13 à 06h jusqu'au 14 à 12h UTC


130520Z 1306/1412 35004KT P6SM FEW250
FM131500 03007KT P6SM SCT045
FM131900 08010KT P6SM BKN050
FM140200 13004KT P6SM FEW050
FIR KZAU / Amérique du Nord



MET'MAP, la Météo Aéronautique d'un coup d'oeil ! - Copyright ORBIFLY Décembre 2007 - Disclaimer

ORBIFLY MET'MAP TEAM :

Programmation & Développement : Alexandra Zaïnal
Sur une idée originale de : Baudouin d'Aumeries
Assistance à la programmation : Marc-Olivier Méhu
Soutien technique & logistique : Manuel Goepfert

Contact : metmap@orbifly.com




SOURCES & CREDITS :

   NOAA       Earth
Advisory